WetterOnline ( https://www.wetteronline.de )

Wetter aktuell Asch

Aktuelles Wetter: Wunsiedel-Schönbrunn (622m)

6-stündlich | Neueste Meldungen
Ortszeit Temperatur Wetter
Do, 18.08. 14:00 21.9° C wolkig
Do, 18.08. 8:00 19.2° C bewölkt
Do, 18.08. 2:00 20.5° C bedeckt
Mi, 17.08. 20:00 25.8° C wolkig
Mi, 17.08. 14:00 27.7° C leicht bewölkt
Mi, 17.08. 8:00 17.0° C leicht bewölkt
Mi, 17.08. 2:00 15.4° C wolkenlos
Di, 16.08. 20:00 23.7° C leicht bewölkt
Ortszeit Temperatur Wetter
Do, 18.08. 15:10 23.4° C bewölkt
Do, 18.08. 15:00 23.4° C bewölkt
Do, 18.08. 14:50 23.4° C bewölkt
Do, 18.08. 14:40 23.3° C wolkig
Do, 18.08. 14:30 23.3° C leicht bewölkt
Do, 18.08. 14:20 23.3° C leicht bewölkt
Do, 18.08. 14:00 21.9° C wolkig
Do, 18.08. 13:30 20.6° C bewölkt
Do, 18.08. 13:00 19.5° C wolkig
Do, 18.08. 12:30 18.6° C wolkig
Ortszeit Relative Feuchte Sichtweite
Do, 18.08. 14:00 66% 35 km
Do, 18.08. 8:00 66% 45 km
Do, 18.08. 2:00 55% 50 km
Mi, 17.08. 20:00 38% 50 km
Mi, 17.08. 14:00 32% 40 km
Mi, 17.08. 8:00 64% 45 km
Mi, 17.08. 2:00 73% 55 km
Di, 16.08. 20:00 44% 60 km
Ortszeit Relative Feuchte Sichtweite
Do, 18.08. 15:10 56% -
Do, 18.08. 15:00 57% 45 km
Do, 18.08. 14:50 57% -
Do, 18.08. 14:40 56% -
Do, 18.08. 14:30 59% 45 km
Do, 18.08. 14:20 59% -
Do, 18.08. 14:00 66% 35 km
Do, 18.08. 13:30 70% 30 km
Do, 18.08. 13:00 74% 30 km
Do, 18.08. 12:30 78% 40 km
Ortszeit Niederschlagsmenge Niederschlagsart
Do, 18.08. 14:00 2 l/m2 in 6 Std. Regen
Do, 18.08. 8:00 0.1 l/m2 in 12 Std. Regen
Do, 18.08. 2:00 0.0 l/m2 in 6 Std. -
Mi, 17.08. 20:00 0.0 l/m2 in 12 Std. -
Mi, 17.08. 14:00 0.0 l/m2 in 6 Std. -
Mi, 17.08. 8:00 0.0 l/m2 in 12 Std. -
Mi, 17.08. 2:00 0.0 l/m2 in 6 Std. -
Di, 16.08. 20:00 0.0 l/m2 in 12 Std. -
Ortszeit Niederschlagsmenge Niederschlagsart
Do, 18.08. 15:10 keine Meldung -
Do, 18.08. 15:00 0.0 l/m2 in 1 Std. -
Do, 18.08. 14:50 keine Meldung -
Do, 18.08. 14:40 keine Meldung -
Do, 18.08. 14:30 0.0 l/m2 in 1 Std. -
Do, 18.08. 14:20 keine Meldung -
Do, 18.08. 14:00 0.0 l/m2 in 1 Std. Regen
Do, 18.08. 13:30 0.0 l/m2 in 1 Std. -
Do, 18.08. 13:00 0.1 l/m2 in 1 Std. -
Do, 18.08. 12:30 0.1 l/m2 in 1 Std. -
Ortszeit Stärke Spitze Richtung
km/h Bft. km/h Grad Sektor
Do, 18.08. 14:00 11 2 32 10° N
Do, 18.08. 8:00 4 1 29 180° S
Do, 18.08. 2:00 6 1 17 320° NW
Mi, 17.08. 20:00 9 2 24 330° NW
Mi, 17.08. 14:00 9 2 22 190° S
Mi, 17.08. 8:00 2 1 9 260° W
Mi, 17.08. 2:00 0 0 14 - -
Di, 16.08. 20:00 9 2 33 290° W
Ortszeit Stärke Spitze Richtung
km/h Bft. km/h Grad Sektor
Do, 18.08. 15:10 15 3 - 30° NO
Do, 18.08. 15:00 14 3 25 20° N
Do, 18.08. 14:50 14 3 - 20° N
Do, 18.08. 14:40 13 3 - 20° N
Do, 18.08. 14:30 15 3 24 20° N
Do, 18.08. 14:20 15 3 - 20° N
Do, 18.08. 14:00 11 2 18 10° N
Do, 18.08. 13:30 7 2 13 10° N
Do, 18.08. 13:00 7 2 18 10° N
Do, 18.08. 12:30 9 2 19 30° NO
Ortszeit Untergrenze Bedeckung Gattung
total tief tief mittel hoch
Do, 18.08. 14:00 2100 m 5/8 4/8 - - -
Do, 18.08. 8:00 2700 m 8/8 6/8 - - -
Do, 18.08. 2:00 4500 m 8/8 8/8 - - -
Mi, 17.08. 20:00 3000 m 7/8 5/8 - - -
Mi, 17.08. 14:00 8100 m 6/8 0/8 - - -
Mi, 17.08. 8:00 8400 m 7/8 0/8 - - -
Mi, 17.08. 2:00 - 0/8 0/8 - - -
Di, 16.08. 20:00 2400 m 2/8 2/8 - - -
Ortszeit Bedeckungsgrad in Achtel und Wolkenuntergrenze
Do, 18.08. 15:10 7
Do, 18.08. 15:00 7(3000m)
Do, 18.08. 14:50 7(3000m)
Do, 18.08. 14:40 5
Do, 18.08. 14:30 3(3300m)
Do, 18.08. 14:20 3(3300m)
Do, 18.08. 14:00 4(2100m) 5(4500m)
Do, 18.08. 13:30 7(2100m) 7(4800m)
Do, 18.08. 13:00 5(2100m) 7(9000m)
Do, 18.08. 12:30 6(2100m)
Ortszeit Luftdruck NN (hPa) Tendenz (hPa in 3 Std.)
Do, 18.08. 14:00 1010 0,0
Do, 18.08. 8:00 1011 + 0,3
Do, 18.08. 2:00 1011 + 0,1
Mi, 17.08. 20:00 1009 0,0
Mi, 17.08. 14:00 1009 - 0,7
Mi, 17.08. 8:00 1012 + 0,3
Mi, 17.08. 2:00 1012 - 0,1
Di, 16.08. 20:00 1009 + 0,1
Ortszeit Luftdruck NN (hPa) Tendenz (hPa in 3 Std.)
Do, 18.08. 15:10 1009 keine Meldung
Do, 18.08. 15:00 1009 - 0,8
Do, 18.08. 14:50 1009 keine Meldung
Do, 18.08. 14:40 1009 keine Meldung
Do, 18.08. 14:30 1009 - 1,0
Do, 18.08. 14:20 1009 keine Meldung
Do, 18.08. 14:00 1010 0,0
Do, 18.08. 13:30 1011 - 0,6
Do, 18.08. 13:00 1011 - 0,3
Do, 18.08. 12:30 1011 0,0
Ortszeit Schneehöhe (cm)
Do, 18.08. 14:00 0
Do, 18.08. 8:00 0
Do, 18.08. 2:00 0
Mi, 17.08. 20:00 0
Mi, 17.08. 14:00 0
Mi, 17.08. 8:00 0
Mi, 17.08. 2:00 0
Di, 16.08. 20:00 0
Ortszeit Schneehöhe (cm)
Do, 18.08. 15:10 0
Do, 18.08. 15:00 0
Do, 18.08. 14:50 0
Do, 18.08. 14:40 0
Do, 18.08. 14:30 0
Do, 18.08. 14:20 0
Do, 18.08. 14:00 0
Do, 18.08. 13:30 0
Do, 18.08. 13:00 0
Do, 18.08. 12:30 0
Link zu dieser Seite / Seite empfehlen

Das Wetter in ...